sensor_id;sensor_type;location;lat;lon;timestamp;temperature;humidity
45849;DHT22;31567;54.600;9.842;2023-06-19T00:01:01;20.10;93.60
45849;DHT22;31567;54.600;9.842;2023-06-19T00:04:40;20.00;93.70
45849;DHT22;31567;54.600;9.842;2023-06-19T00:08:20;20.00;93.80
45849;DHT22;31567;54.600;9.842;2023-06-19T00:11:59;20.00;93.90
45849;DHT22;31567;54.600;9.842;2023-06-19T00:15:40;19.90;94.10
45849;DHT22;31567;54.600;9.842;2023-06-19T00:19:20;19.90;94.30
45849;DHT22;31567;54.600;9.842;2023-06-19T00:22:59;19.80;94.10
45849;DHT22;31567;54.600;9.842;2023-06-19T00:26:39;19.80;94.30
45849;DHT22;31567;54.600;9.842;2023-06-19T00:30:19;19.70;94.30
45849;DHT22;31567;54.600;9.842;2023-06-19T00:33:59;19.70;94.50
45849;DHT22;31567;54.600;9.842;2023-06-19T00:37:39;19.60;94.70
45849;DHT22;31567;54.600;9.842;2023-06-19T00:41:18;19.70;94.90
45849;DHT22;31567;54.600;9.842;2023-06-19T00:44:59;19.50;95.00
45849;DHT22;31567;54.600;9.842;2023-06-19T00:48:39;19.50;95.30
45849;DHT22;31567;54.600;9.842;2023-06-19T00:52:19;19.50;95.20
45849;DHT22;31567;54.600;9.842;2023-06-19T00:55:59;19.50;95.30
45849;DHT22;31567;54.600;9.842;2023-06-19T00:59:39;19.50;95.50
45849;DHT22;31567;54.600;9.842;2023-06-19T01:03:18;19.50;95.60
45849;DHT22;31567;54.600;9.842;2023-06-19T01:07:03;19.50;95.60
45849;DHT22;31567;54.600;9.842;2023-06-19T01:10:54;19.50;95.70
45849;DHT22;31567;54.600;9.842;2023-06-19T01:14:54;19.50;95.60
45849;DHT22;31567;54.600;9.842;2023-06-19T01:18:35;19.50;95.60
45849;DHT22;31567;54.600;9.842;2023-06-19T01:26:06;19.40;95.80
45849;DHT22;31567;54.600;9.842;2023-06-19T01:29:46;19.40;95.90
45849;DHT22;31567;54.600;9.842;2023-06-19T01:33:28;19.40;95.90
45849;DHT22;31567;54.600;9.842;2023-06-19T01:37:10;19.40;96.00
45849;DHT22;31567;54.600;9.842;2023-06-19T01:40:52;19.40;96.10
45849;DHT22;31567;54.600;9.842;2023-06-19T01:44:33;19.40;96.10
45849;DHT22;31567;54.600;9.842;2023-06-19T01:48:13;19.30;96.20
45849;DHT22;31567;54.600;9.842;2023-06-19T01:51:53;19.40;96.40
45849;DHT22;31567;54.600;9.842;2023-06-19T01:55:34;19.40;96.50
45849;DHT22;31567;54.600;9.842;2023-06-19T01:59:14;19.30;96.80
45849;DHT22;31567;54.600;9.842;2023-06-19T02:02:53;19.30;97.00
45849;DHT22;31567;54.600;9.842;2023-06-19T02:06:33;19.40;97.10
45849;DHT22;31567;54.600;9.842;2023-06-19T02:10:13;19.40;97.30
45849;DHT22;31567;54.600;9.842;2023-06-19T02:13:53;19.40;97.60
45849;DHT22;31567;54.600;9.842;2023-06-19T02:17:32;19.50;97.80
45849;DHT22;31567;54.600;9.842;2023-06-19T02:21:12;19.50;97.90
45849;DHT22;31567;54.600;9.842;2023-06-19T02:24:52;19.60;98.00
45849;DHT22;31567;54.600;9.842;2023-06-19T02:28:31;19.50;98.00
45849;DHT22;31567;54.600;9.842;2023-06-19T02:32:11;19.50;98.00
45849;DHT22;31567;54.600;9.842;2023-06-19T02:35:50;19.60;98.40
45849;DHT22;31567;54.600;9.842;2023-06-19T02:39:30;19.50;98.20
45849;DHT22;31567;54.600;9.842;2023-06-19T02:43:09;19.50;98.30
45849;DHT22;31567;54.600;9.842;2023-06-19T02:46:49;19.60;98.40
45849;DHT22;31567;54.600;9.842;2023-06-19T02:50:28;19.60;98.40
45849;DHT22;31567;54.600;9.842;2023-06-19T02:54:08;19.60;98.30
45849;DHT22;31567;54.600;9.842;2023-06-19T02:57:47;19.60;98.40
45849;DHT22;31567;54.600;9.842;2023-06-19T03:01:27;19.60;98.60
45849;DHT22;31567;54.600;9.842;2023-06-19T03:05:07;19.60;98.60
45849;DHT22;31567;54.600;9.842;2023-06-19T03:08:46;19.60;98.70
45849;DHT22;31567;54.600;9.842;2023-06-19T03:12:26;19.70;98.90
45849;DHT22;31567;54.600;9.842;2023-06-19T03:16:05;19.70;99.10
45849;DHT22;31567;54.600;9.842;2023-06-19T03:19:46;19.80;99.20
45849;DHT22;31567;54.600;9.842;2023-06-19T03:23:26;19.90;99.40
45849;DHT22;31567;54.600;9.842;2023-06-19T03:27:05;20.10;99.60
45849;DHT22;31567;54.600;9.842;2023-06-19T03:30:46;20.10;99.60
45849;DHT22;31567;54.600;9.842;2023-06-19T03:34:25;20.30;99.80
45849;DHT22;31567;54.600;9.842;2023-06-19T03:38:05;20.40;99.80
45849;DHT22;31567;54.600;9.842;2023-06-19T03:41:45;20.40;99.90
45849;DHT22;31567;54.600;9.842;2023-06-19T03:45:24;20.50;99.90
45849;DHT22;31567;54.600;9.842;2023-06-19T03:49:04;20.60;99.90
45849;DHT22;31567;54.600;9.842;2023-06-19T03:52:44;20.70;99.90
45849;DHT22;31567;54.600;9.842;2023-06-19T03:56:23;20.80;99.90
45849;DHT22;31567;54.600;9.842;2023-06-19T04:00:03;20.90;99.90
45849;DHT22;31567;54.600;9.842;2023-06-19T04:03:47;20.90;99.90
45849;DHT22;31567;54.600;9.842;2023-06-19T04:07:26;21.00;99.90
45849;DHT22;31567;54.600;9.842;2023-06-19T04:11:06;21.00;99.90
45849;DHT22;31567;54.600;9.842;2023-06-19T04:14:45;21.00;99.90
45849;DHT22;31567;54.600;9.842;2023-06-19T04:18:25;21.10;99.90
45849;DHT22;31567;54.600;9.842;2023-06-19T04:22:06;21.10;99.90
45849;DHT22;31567;54.600;9.842;2023-06-19T04:25:46;21.10;99.90
45849;DHT22;31567;54.600;9.842;2023-06-19T04:29:25;21.10;99.90
45849;DHT22;31567;54.600;9.842;2023-06-19T04:33:05;21.30;99.90
45849;DHT22;31567;54.600;9.842;2023-06-19T04:36:47;21.40;99.90
45849;DHT22;31567;54.600;9.842;2023-06-19T04:40:27;21.40;99.90
45849;DHT22;31567;54.600;9.842;2023-06-19T04:44:06;21.40;99.90
45849;DHT22;31567;54.600;9.842;2023-06-19T04:47:47;21.30;99.90
45849;DHT22;31567;54.600;9.842;2023-06-19T04:51:26;21.40;99.90
45849;DHT22;31567;54.600;9.842;2023-06-19T04:55:07;21.40;99.90
45849;DHT22;31567;54.600;9.842;2023-06-19T04:58:48;21.40;99.90
45849;DHT22;31567;54.600;9.842;2023-06-19T05:02:29;21.50;99.90
45849;DHT22;31567;54.600;9.842;2023-06-19T05:06:08;21.50;99.90
45849;DHT22;31567;54.600;9.842;2023-06-19T05:09:48;21.50;99.90
45849;DHT22;31567;54.600;9.842;2023-06-19T05:13:27;21.50;99.90
45849;DHT22;31567;54.600;9.842;2023-06-19T05:17:07;21.60;99.90
45849;DHT22;31567;54.600;9.842;2023-06-19T05:20:48;21.50;99.90
45849;DHT22;31567;54.600;9.842;2023-06-19T05:24:28;21.50;99.90
45849;DHT22;31567;54.600;9.842;2023-06-19T05:28:08;21.50;99.90
45849;DHT22;31567;54.600;9.842;2023-06-19T05:31:47;21.50;99.90
45849;DHT22;31567;54.600;9.842;2023-06-19T05:35:27;21.50;99.90
45849;DHT22;31567;54.600;9.842;2023-06-19T05:39:06;21.50;99.90
45849;DHT22;31567;54.600;9.842;2023-06-19T05:42:46;21.50;99.90
45849;DHT22;31567;54.600;9.842;2023-06-19T05:46:25;21.40;99.90
45849;DHT22;31567;54.600;9.842;2023-06-19T05:50:05;21.40;99.90
45849;DHT22;31567;54.600;9.842;2023-06-19T05:53:45;21.40;99.90
45849;DHT22;31567;54.600;9.842;2023-06-19T05:57:25;21.40;99.90
45849;DHT22;31567;54.600;9.842;2023-06-19T06:01:05;21.40;99.90
45849;DHT22;31567;54.600;9.842;2023-06-19T06:04:46;21.30;99.90
45849;DHT22;31567;54.600;9.842;2023-06-19T06:08:25;21.30;99.90
45849;DHT22;31567;54.600;9.842;2023-06-19T06:12:05;21.20;99.90
45849;DHT22;31567;54.600;9.842;2023-06-19T06:15:45;21.30;99.90
45849;DHT22;31567;54.600;9.842;2023-06-19T06:19:24;21.30;99.90
45849;DHT22;31567;54.600;9.842;2023-06-19T06:23:04;21.30;99.90
45849;DHT22;31567;54.600;9.842;2023-06-19T06:26:43;21.30;99.80
45849;DHT22;31567;54.600;9.842;2023-06-19T06:30:24;21.40;99.90
45849;DHT22;31567;54.600;9.842;2023-06-19T06:34:04;21.40;99.90
45849;DHT22;31567;54.600;9.842;2023-06-19T06:37:43;21.40;99.90
45849;DHT22;31567;54.600;9.842;2023-06-19T06:41:25;21.30;99.90
45849;DHT22;31567;54.600;9.842;2023-06-19T06:45:05;21.40;99.90
45849;DHT22;31567;54.600;9.842;2023-06-19T06:48:46;21.50;99.90
45849;DHT22;31567;54.600;9.842;2023-06-19T06:52:25;21.40;99.90
45849;DHT22;31567;54.600;9.842;2023-06-19T06:56:05;21.40;99.80
45849;DHT22;31567;54.600;9.842;2023-06-19T06:59:44;21.40;99.80
45849;DHT22;31567;54.600;9.842;2023-06-19T07:03:24;21.40;99.70
45849;DHT22;31567;54.600;9.842;2023-06-19T07:07:03;21.40;99.60
45849;DHT22;31567;54.600;9.842;2023-06-19T07:10:45;21.40;99.60
45849;DHT22;31567;54.600;9.842;2023-06-19T07:14:24;21.40;99.60
45849;DHT22;31567;54.600;9.842;2023-06-19T07:18:04;21.40;99.60
45849;DHT22;31567;54.600;9.842;2023-06-19T07:21:44;21.40;99.60
45849;DHT22;31567;54.600;9.842;2023-06-19T07:25:23;21.40;99.60
45849;DHT22;31567;54.600;9.842;2023-06-19T07:29:04;21.50;99.60
45849;DHT22;31567;54.600;9.842;2023-06-19T07:32:44;21.40;99.40
45849;DHT22;31567;54.600;9.842;2023-06-19T07:36:23;21.50;99.40
45849;DHT22;31567;54.600;9.842;2023-06-19T07:40:03;21.50;99.40
45849;DHT22;31567;54.600;9.842;2023-06-19T07:43:43;21.50;99.40
45849;DHT22;31567;54.600;9.842;2023-06-19T07:47:22;21.50;99.40
45849;DHT22;31567;54.600;9.842;2023-06-19T07:51:02;21.40;99.40
45849;DHT22;31567;54.600;9.842;2023-06-19T07:54:52;21.30;99.50
45849;DHT22;31567;54.600;9.842;2023-06-19T07:58:32;21.40;99.30
45849;DHT22;31567;54.600;9.842;2023-06-19T08:02:12;21.30;99.60
45849;DHT22;31567;54.600;9.842;2023-06-19T08:05:51;21.40;99.90
45849;DHT22;31567;54.600;9.842;2023-06-19T08:09:32;21.30;99.90
45849;DHT22;31567;54.600;9.842;2023-06-19T08:13:12;21.30;99.90
45849;DHT22;31567;54.600;9.842;2023-06-19T08:16:51;21.40;99.90
45849;DHT22;31567;54.600;9.842;2023-06-19T08:20:31;21.40;99.90
45849;DHT22;31567;54.600;9.842;2023-06-19T08:24:10;21.40;99.90
45849;DHT22;31567;54.600;9.842;2023-06-19T08:27:50;21.40;99.90
45849;DHT22;31567;54.600;9.842;2023-06-19T08:31:29;21.50;99.90
45849;DHT22;31567;54.600;9.842;2023-06-19T08:35:09;21.40;99.90
45849;DHT22;31567;54.600;9.842;2023-06-19T08:38:49;21.50;99.90
45849;DHT22;31567;54.600;9.842;2023-06-19T08:42:29;21.40;99.90
45849;DHT22;31567;54.600;9.842;2023-06-19T08:46:15;21.40;99.90
45849;DHT22;31567;54.600;9.842;2023-06-19T08:49:55;21.50;99.90
45849;DHT22;31567;54.600;9.842;2023-06-19T08:53:36;21.60;99.90
45849;DHT22;31567;54.600;9.842;2023-06-19T08:57:16;21.50;99.90
45849;DHT22;31567;54.600;9.842;2023-06-19T09:00:58;21.50;99.90
45849;DHT22;31567;54.600;9.842;2023-06-19T09:04:38;21.60;99.90
45849;DHT22;31567;54.600;9.842;2023-06-19T09:08:19;21.60;99.90
45849;DHT22;31567;54.600;9.842;2023-06-19T09:15:44;21.70;99.90
45849;DHT22;31567;54.600;9.842;2023-06-19T09:19:24;21.80;99.90
45849;DHT22;31567;54.600;9.842;2023-06-19T09:23:03;22.00;99.90
45849;DHT22;31567;54.600;9.842;2023-06-19T09:26:43;22.00;99.90
45849;DHT22;31567;54.600;9.842;2023-06-19T09:30:23;22.10;99.90
45849;DHT22;31567;54.600;9.842;2023-06-19T09:34:03;22.50;99.70
45849;DHT22;31567;54.600;9.842;2023-06-19T09:37:45;22.60;99.40
45849;DHT22;31567;54.600;9.842;2023-06-19T09:41:25;22.90;99.30
45849;DHT22;31567;54.600;9.842;2023-06-19T09:45:07;23.20;98.90
45849;DHT22;31567;54.600;9.842;2023-06-19T09:48:47;23.50;98.20
45849;DHT22;31567;54.600;9.842;2023-06-19T09:52:32;23.70;97.60
45849;DHT22;31567;54.600;9.842;2023-06-19T09:56:13;23.90;97.40
45849;DHT22;31567;54.600;9.842;2023-06-19T09:59:55;23.90;95.60
45849;DHT22;31567;54.600;9.842;2023-06-19T10:03:36;23.90;95.70
45849;DHT22;31567;54.600;9.842;2023-06-19T10:07:20;23.90;95.70
45849;DHT22;31567;54.600;9.842;2023-06-19T10:11:00;24.20;95.40
45849;DHT22;31567;54.600;9.842;2023-06-19T10:14:47;24.50;94.80
45849;DHT22;31567;54.600;9.842;2023-06-19T10:18:28;24.70;94.40
45849;DHT22;31567;54.600;9.842;2023-06-19T10:22:07;24.90;94.20
45849;DHT22;31567;54.600;9.842;2023-06-19T10:25:49;25.20;93.40
45849;DHT22;31567;54.600;9.842;2023-06-19T10:29:42;25.20;92.20
45849;DHT22;31567;54.600;9.842;2023-06-19T10:33:27;25.30;91.40
45849;DHT22;31567;54.600;9.842;2023-06-19T10:37:07;25.50;91.30
45849;DHT22;31567;54.600;9.842;2023-06-19T10:40:47;25.60;91.20
45849;DHT22;31567;54.600;9.842;2023-06-19T10:44:27;25.70;90.90
45849;DHT22;31567;54.600;9.842;2023-06-19T10:48:06;25.80;90.70
45849;DHT22;31567;54.600;9.842;2023-06-19T10:51:48;25.90;91.10
45849;DHT22;31567;54.600;9.842;2023-06-19T10:55:28;26.00;90.70
45849;DHT22;31567;54.600;9.842;2023-06-19T10:59:09;26.40;90.20
45849;DHT22;31567;54.600;9.842;2023-06-19T11:02:49;26.80;90.30
45849;DHT22;31567;54.600;9.842;2023-06-19T11:06:28;27.20;90.00
45849;DHT22;31567;54.600;9.842;2023-06-19T11:10:19;27.50;88.50
45849;DHT22;31567;54.600;9.842;2023-06-19T11:13:59;27.60;88.20
45849;DHT22;31567;54.600;9.842;2023-06-19T11:17:38;27.70;87.30
45849;DHT22;31567;54.600;9.842;2023-06-19T11:21:18;27.70;85.80
45849;DHT22;31567;54.600;9.842;2023-06-19T11:25:02;28.10;85.90
45849;DHT22;31567;54.600;9.842;2023-06-19T11:28:48;28.30;85.60
45849;DHT22;31567;54.600;9.842;2023-06-19T11:32:31;28.50;82.50
45849;DHT22;31567;54.600;9.842;2023-06-19T11:36:11;28.70;81.10
45849;DHT22;31567;54.600;9.842;2023-06-19T11:39:51;28.70;81.80
45849;DHT22;31567;54.600;9.842;2023-06-19T11:43:32;28.40;81.50
45849;DHT22;31567;54.600;9.842;2023-06-19T11:47:11;28.20;81.00
45849;DHT22;31567;54.600;9.842;2023-06-19T11:50:52;28.10;81.60
45849;DHT22;31567;54.600;9.842;2023-06-19T11:54:32;28.10;82.60
45849;DHT22;31567;54.600;9.842;2023-06-19T11:58:11;28.10;82.80
45849;DHT22;31567;54.600;9.842;2023-06-19T12:01:51;27.90;83.10
45849;DHT22;31567;54.600;9.842;2023-06-19T12:05:30;27.80;81.60
45849;DHT22;31567;54.600;9.842;2023-06-19T12:09:10;27.70;82.20
45849;DHT22;31567;54.600;9.842;2023-06-19T12:12:50;27.70;84.30
45849;DHT22;31567;54.600;9.842;2023-06-19T12:16:30;27.50;85.10
45849;DHT22;31567;54.600;9.842;2023-06-19T12:20:10;27.60;86.30
45849;DHT22;31567;54.600;9.842;2023-06-19T12:23:50;27.60;87.60
45849;DHT22;31567;54.600;9.842;2023-06-19T12:27:29;27.70;87.50
45849;DHT22;31567;54.600;9.842;2023-06-19T12:31:09;27.80;89.00
45849;DHT22;31567;54.600;9.842;2023-06-19T12:34:49;28.00;88.20
45849;DHT22;31567;54.600;9.842;2023-06-19T12:38:33;28.10;87.40
45849;DHT22;31567;54.600;9.842;2023-06-19T12:42:15;28.30;87.60
45849;DHT22;31567;54.600;9.842;2023-06-19T12:45:55;28.50;86.90
45849;DHT22;31567;54.600;9.842;2023-06-19T12:49:34;28.90;87.30
45849;DHT22;31567;54.600;9.842;2023-06-19T12:53:14;29.20;86.40
45849;DHT22;31567;54.600;9.842;2023-06-19T12:56:54;29.60;83.10
45849;DHT22;31567;54.600;9.842;2023-06-19T13:00:33;29.70;83.30
45849;DHT22;31567;54.600;9.842;2023-06-19T13:04:13;29.80;82.00
45849;DHT22;31567;54.600;9.842;2023-06-19T13:07:53;29.90;81.00
45849;DHT22;31567;54.600;9.842;2023-06-19T13:11:32;29.90;83.20
45849;DHT22;31567;54.600;9.842;2023-06-19T13:15:13;30.10;81.40
45849;DHT22;31567;54.600;9.842;2023-06-19T13:18:53;30.30;80.00
45849;DHT22;31567;54.600;9.842;2023-06-19T13:22:32;30.40;79.20
45849;DHT22;31567;54.600;9.842;2023-06-19T13:26:12;30.20;79.10
45849;DHT22;31567;54.600;9.842;2023-06-19T13:29:53;29.90;75.20
45849;DHT22;31567;54.600;9.842;2023-06-19T13:33:33;29.60;73.90
45849;DHT22;31567;54.600;9.842;2023-06-19T13:37:12;29.30;74.80
45849;DHT22;31567;54.600;9.842;2023-06-19T13:40:52;29.00;75.10
45849;DHT22;31567;54.600;9.842;2023-06-19T13:44:31;28.60;75.90
45849;DHT22;31567;54.600;9.842;2023-06-19T13:48:11;28.20;78.50
45849;DHT22;31567;54.600;9.842;2023-06-19T13:51:51;27.70;81.70
45849;DHT22;31567;54.600;9.842;2023-06-19T13:55:30;27.40;84.30
45849;DHT22;31567;54.600;9.842;2023-06-19T13:59:10;27.10;86.60
45849;DHT22;31567;54.600;9.842;2023-06-19T14:02:49;26.90;88.00
45849;DHT22;31567;54.600;9.842;2023-06-19T14:06:29;26.70;88.80
45849;DHT22;31567;54.600;9.842;2023-06-19T14:10:09;26.70;87.90
45849;DHT22;31567;54.600;9.842;2023-06-19T14:13:49;26.60;87.90
45849;DHT22;31567;54.600;9.842;2023-06-19T14:17:29;26.50;88.10
45849;DHT22;31567;54.600;9.842;2023-06-19T14:21:08;26.50;88.60
45849;DHT22;31567;54.600;9.842;2023-06-19T14:24:48;26.60;88.90
45849;DHT22;31567;54.600;9.842;2023-06-19T14:28:27;26.50;88.40
45849;DHT22;31567;54.600;9.842;2023-06-19T14:32:07;26.40;88.70
45849;DHT22;31567;54.600;9.842;2023-06-19T14:35:47;26.40;88.70
45849;DHT22;31567;54.600;9.842;2023-06-19T14:39:26;26.20;89.80
45849;DHT22;31567;54.600;9.842;2023-06-19T14:43:06;26.00;90.00
45849;DHT22;31567;54.600;9.842;2023-06-19T14:46:45;25.80;90.30
45849;DHT22;31567;54.600;9.842;2023-06-19T14:50:25;25.70;90.00
45849;DHT22;31567;54.600;9.842;2023-06-19T14:54:05;25.50;90.10
45849;DHT22;31567;54.600;9.842;2023-06-19T14:57:44;25.30;90.50
45849;DHT22;31567;54.600;9.842;2023-06-19T15:01:25;25.10;90.80
45849;DHT22;31567;54.600;9.842;2023-06-19T15:05:05;24.90;91.10
45849;DHT22;31567;54.600;9.842;2023-06-19T15:08:44;25.00;91.30
45849;DHT22;31567;54.600;9.842;2023-06-19T15:12:24;25.00;91.40
45849;DHT22;31567;54.600;9.842;2023-06-19T15:16:04;25.00;91.50
45849;DHT22;31567;54.600;9.842;2023-06-19T15:19:47;25.10;91.40
45849;DHT22;31567;54.600;9.842;2023-06-19T15:23:26;25.10;91.10
45849;DHT22;31567;54.600;9.842;2023-06-19T15:27:06;25.10;91.10
45849;DHT22;31567;54.600;9.842;2023-06-19T15:30:45;25.10;91.20
45849;DHT22;31567;54.600;9.842;2023-06-19T15:34:25;25.10;91.10
45849;DHT22;31567;54.600;9.842;2023-06-19T15:38:05;25.10;91.10
45849;DHT22;31567;54.600;9.842;2023-06-19T15:41:44;25.00;91.20
45849;DHT22;31567;54.600;9.842;2023-06-19T15:45:25;24.90;91.10
45849;DHT22;31567;54.600;9.842;2023-06-19T15:49:04;24.60;91.10
45849;DHT22;31567;54.600;9.842;2023-06-19T15:52:44;24.60;91.40
45849;DHT22;31567;54.600;9.842;2023-06-19T15:56:23;24.60;91.50
45849;DHT22;31567;54.600;9.842;2023-06-19T16:00:03;24.60;91.40
45849;DHT22;31567;54.600;9.842;2023-06-19T16:03:44;24.60;91.40
45849;DHT22;31567;54.600;9.842;2023-06-19T16:07:23;24.60;91.20
45849;DHT22;31567;54.600;9.842;2023-06-19T16:11:03;24.70;91.20
45849;DHT22;31567;54.600;9.842;2023-06-19T16:14:44;24.80;90.90
45849;DHT22;31567;54.600;9.842;2023-06-19T16:18:23;25.00;90.70
45849;DHT22;31567;54.600;9.842;2023-06-19T16:22:03;24.90;90.70
45849;DHT22;31567;54.600;9.842;2023-06-19T16:25:42;24.90;90.80
45849;DHT22;31567;54.600;9.842;2023-06-19T16:29:22;25.10;90.50
45849;DHT22;31567;54.600;9.842;2023-06-19T16:33:02;25.30;90.30
45849;DHT22;31567;54.600;9.842;2023-06-19T16:36:42;25.40;90.30
45849;DHT22;31567;54.600;9.842;2023-06-19T16:40:22;25.60;90.00
45849;DHT22;31567;54.600;9.842;2023-06-19T16:44:04;25.80;89.50
45849;DHT22;31567;54.600;9.842;2023-06-19T16:47:43;25.80;88.60
45849;DHT22;31567;54.600;9.842;2023-06-19T16:51:23;25.80;88.00
45849;DHT22;31567;54.600;9.842;2023-06-19T16:55:02;25.80;87.50
45849;DHT22;31567;54.600;9.842;2023-06-19T16:58:42;25.70;87.60
45849;DHT22;31567;54.600;9.842;2023-06-19T17:02:22;25.50;87.40
45849;DHT22;31567;54.600;9.842;2023-06-19T17:06:01;25.20;87.30
45849;DHT22;31567;54.600;9.842;2023-06-19T17:09:41;25.00;88.00
45849;DHT22;31567;54.600;9.842;2023-06-19T17:13:22;24.80;87.50
45849;DHT22;31567;54.600;9.842;2023-06-19T17:17:02;24.90;88.00
45849;DHT22;31567;54.600;9.842;2023-06-19T17:20:42;25.20;86.80
45849;DHT22;31567;54.600;9.842;2023-06-19T17:24:21;25.30;86.10
45849;DHT22;31567;54.600;9.842;2023-06-19T17:28:01;25.60;86.20
45849;DHT22;31567;54.600;9.842;2023-06-19T17:31:40;25.80;85.30
45849;DHT22;31567;54.600;9.842;2023-06-19T17:35:20;25.90;85.00
45849;DHT22;31567;54.600;9.842;2023-06-19T17:38:59;26.00;84.80
45849;DHT22;31567;54.600;9.842;2023-06-19T17:42:40;26.00;84.40
45849;DHT22;31567;54.600;9.842;2023-06-19T17:46:20;26.10;84.30
45849;DHT22;31567;54.600;9.842;2023-06-19T17:49:59;26.20;84.10
45849;DHT22;31567;54.600;9.842;2023-06-19T17:53:39;26.30;84.00
45849;DHT22;31567;54.600;9.842;2023-06-19T17:57:22;26.20;83.30
45849;DHT22;31567;54.600;9.842;2023-06-19T18:01:02;26.20;83.20
45849;DHT22;31567;54.600;9.842;2023-06-19T18:04:42;26.30;83.30
45849;DHT22;31567;54.600;9.842;2023-06-19T18:08:21;26.50;83.20
45849;DHT22;31567;54.600;9.842;2023-06-19T18:12:01;26.70;81.90
45849;DHT22;31567;54.600;9.842;2023-06-19T18:15:40;26.80;81.40
45849;DHT22;31567;54.600;9.842;2023-06-19T18:19:20;26.80;81.30
45849;DHT22;31567;54.600;9.842;2023-06-19T18:22:59;26.90;81.50
45849;DHT22;31567;54.600;9.842;2023-06-19T18:26:39;26.90;80.00
45849;DHT22;31567;54.600;9.842;2023-06-19T18:30:19;26.80;79.00
45849;DHT22;31567;54.600;9.842;2023-06-19T18:33:58;26.70;79.10
45849;DHT22;31567;54.600;9.842;2023-06-19T18:37:38;26.60;79.20
45849;DHT22;31567;54.600;9.842;2023-06-19T18:41:17;26.70;79.00
45849;DHT22;31567;54.600;9.842;2023-06-19T18:44:57;26.70;79.00
45849;DHT22;31567;54.600;9.842;2023-06-19T18:48:36;26.80;78.70
45849;DHT22;31567;54.600;9.842;2023-06-19T18:52:16;26.40;78.40
45849;DHT22;31567;54.600;9.842;2023-06-19T18:55:56;26.20;78.60
45849;DHT22;31567;54.600;9.842;2023-06-19T18:59:36;26.00;79.10
45849;DHT22;31567;54.600;9.842;2023-06-19T19:03:15;25.70;79.40
45849;DHT22;31567;54.600;9.842;2023-06-19T19:06:56;25.40;80.10
45849;DHT22;31567;54.600;9.842;2023-06-19T19:10:36;25.00;81.00
45849;DHT22;31567;54.600;9.842;2023-06-19T19:14:16;24.60;82.30
45849;DHT22;31567;54.600;9.842;2023-06-19T19:17:56;24.10;83.80
45849;DHT22;31567;54.600;9.842;2023-06-19T19:21:35;23.70;85.20
45849;DHT22;31567;54.600;9.842;2023-06-19T19:25:15;23.30;86.20
45849;DHT22;31567;54.600;9.842;2023-06-19T19:28:55;22.90;87.20
45849;DHT22;31567;54.600;9.842;2023-06-19T19:32:34;22.70;88.00
45849;DHT22;31567;54.600;9.842;2023-06-19T19:36:14;22.50;88.70
45849;DHT22;31567;54.600;9.842;2023-06-19T19:39:55;22.40;89.40
45849;DHT22;31567;54.600;9.842;2023-06-19T19:43:35;22.20;90.00
45849;DHT22;31567;54.600;9.842;2023-06-19T19:47:15;22.10;90.20
45849;DHT22;31567;54.600;9.842;2023-06-19T19:50:55;22.00;90.60
45849;DHT22;31567;54.600;9.842;2023-06-19T19:54:34;21.80;91.00
45849;DHT22;31567;54.600;9.842;2023-06-19T19:58:14;21.50;91.50
45849;DHT22;31567;54.600;9.842;2023-06-19T20:01:53;21.40;92.00
45849;DHT22;31567;54.600;9.842;2023-06-19T20:05:33;21.20;92.40
45849;DHT22;31567;54.600;9.842;2023-06-19T20:09:12;21.10;92.70
45849;DHT22;31567;54.600;9.842;2023-06-19T20:12:52;21.00;93.00
45849;DHT22;31567;54.600;9.842;2023-06-19T20:16:31;20.90;93.10
45849;DHT22;31567;54.600;9.842;2023-06-19T20:20:12;20.90;93.30
45849;DHT22;31567;54.600;9.842;2023-06-19T20:23:51;20.80;93.50
45849;DHT22;31567;54.600;9.842;2023-06-19T20:27:31;20.70;93.60
45849;DHT22;31567;54.600;9.842;2023-06-19T20:31:11;20.60;93.70
45849;DHT22;31567;54.600;9.842;2023-06-19T20:34:50;20.60;93.90
45849;DHT22;31567;54.600;9.842;2023-06-19T20:38:31;20.50;94.00
45849;DHT22;31567;54.600;9.842;2023-06-19T20:42:10;20.40;94.00
45849;DHT22;31567;54.600;9.842;2023-06-19T20:45:50;20.30;94.10
45849;DHT22;31567;54.600;9.842;2023-06-19T20:49:29;20.30;94.20
45849;DHT22;31567;54.600;9.842;2023-06-19T20:53:09;20.20;94.30
45849;DHT22;31567;54.600;9.842;2023-06-19T20:56:49;20.20;94.10
45849;DHT22;31567;54.600;9.842;2023-06-19T21:00:29;20.00;94.10
45849;DHT22;31567;54.600;9.842;2023-06-19T21:04:09;20.00;94.30
45849;DHT22;31567;54.600;9.842;2023-06-19T21:07:48;19.90;94.50
45849;DHT22;31567;54.600;9.842;2023-06-19T21:11:28;19.90;94.60
45849;DHT22;31567;54.600;9.842;2023-06-19T21:15:08;19.80;94.60
45849;DHT22;31567;54.600;9.842;2023-06-19T21:18:47;19.70;94.70
45849;DHT22;31567;54.600;9.842;2023-06-19T21:22:27;19.70;94.80
45849;DHT22;31567;54.600;9.842;2023-06-19T21:26:06;19.70;95.00
45849;DHT22;31567;54.600;9.842;2023-06-19T21:29:46;19.60;94.90
45849;DHT22;31567;54.600;9.842;2023-06-19T21:33:25;19.50;94.80
45849;DHT22;31567;54.600;9.842;2023-06-19T21:37:06;19.40;95.00
45849;DHT22;31567;54.600;9.842;2023-06-19T21:40:46;19.30;95.30
45849;DHT22;31567;54.600;9.842;2023-06-19T21:44:25;19.20;95.40
45849;DHT22;31567;54.600;9.842;2023-06-19T21:48:05;19.10;95.50
45849;DHT22;31567;54.600;9.842;2023-06-19T21:51:44;19.20;95.80
45849;DHT22;31567;54.600;9.842;2023-06-19T21:55:24;19.10;95.90
45849;DHT22;31567;54.600;9.842;2023-06-19T21:59:04;19.10;96.10
45849;DHT22;31567;54.600;9.842;2023-06-19T22:02:43;19.00;96.10
45849;DHT22;31567;54.600;9.842;2023-06-19T22:06:23;19.00;96.20
45849;DHT22;31567;54.600;9.842;2023-06-19T22:10:03;18.90;96.30
45849;DHT22;31567;54.600;9.842;2023-06-19T22:13:43;18.90;96.60
45849;DHT22;31567;54.600;9.842;2023-06-19T22:17:23;18.80;96.60
45849;DHT22;31567;54.600;9.842;2023-06-19T22:21:02;18.80;96.60
45849;DHT22;31567;54.600;9.842;2023-06-19T22:24:42;18.70;96.60
45849;DHT22;31567;54.600;9.842;2023-06-19T22:28:22;18.50;96.60
45849;DHT22;31567;54.600;9.842;2023-06-19T22:32:01;18.60;96.80
45849;DHT22;31567;54.600;9.842;2023-06-19T22:35:41;18.50;96.50
45849;DHT22;31567;54.600;9.842;2023-06-19T22:39:21;18.30;96.50
45849;DHT22;31567;54.600;9.842;2023-06-19T22:43:01;18.20;96.70
45849;DHT22;31567;54.600;9.842;2023-06-19T22:46:41;18.20;97.20
45849;DHT22;31567;54.600;9.842;2023-06-19T22:50:20;18.30;97.40
45849;DHT22;31567;54.600;9.842;2023-06-19T22:54:00;18.20;97.70
45849;DHT22;31567;54.600;9.842;2023-06-19T22:57:40;18.30;98.00
45849;DHT22;31567;54.600;9.842;2023-06-19T23:01:19;18.30;98.00
45849;DHT22;31567;54.600;9.842;2023-06-19T23:05:05;18.30;98.20
45849;DHT22;31567;54.600;9.842;2023-06-19T23:08:44;18.20;98.10
45849;DHT22;31567;54.600;9.842;2023-06-19T23:12:28;18.10;98.30
45849;DHT22;31567;54.600;9.842;2023-06-19T23:16:08;17.90;98.20